createdAt,value
2018-12-11T00:02:19.125Z,5.38
2018-12-11T00:04:47.345Z,5.36
2018-12-11T00:07:15.576Z,5.35
2018-12-11T00:09:43.816Z,5.35
2018-12-11T00:12:12.140Z,5.35
2018-12-11T00:14:40.381Z,5.37
2018-12-11T00:17:08.576Z,5.36
2018-12-11T00:19:36.871Z,5.33
2018-12-11T00:22:05.232Z,5.31
2018-12-11T00:24:33.436Z,5.30
2018-12-11T00:27:01.672Z,5.25
2018-12-11T00:29:29.969Z,5.28
2018-12-11T00:31:58.189Z,5.26
2018-12-11T00:34:26.436Z,5.26
2018-12-11T00:36:54.772Z,5.22
2018-12-11T00:39:22.942Z,5.21
2018-12-11T00:41:51.195Z,5.25
2018-12-11T00:44:19.411Z,5.19
2018-12-11T00:46:47.663Z,5.19
2018-12-11T00:49:15.945Z,5.15
2018-12-11T00:51:44.293Z,5.19
2018-12-11T00:54:12.977Z,5.16
2018-12-11T00:56:41.186Z,5.13
2018-12-11T00:59:09.424Z,5.14
2018-12-11T01:01:37.765Z,5.11
2018-12-11T01:04:05.976Z,5.10
2018-12-11T01:06:34.325Z,5.07
2018-12-11T01:09:02.565Z,5.05
2018-12-11T01:11:30.807Z,5.07
2018-12-11T01:13:59.142Z,5.04
2018-12-11T01:16:27.498Z,5.00
2018-12-11T01:18:55.992Z,5.01
2018-12-11T01:21:24.228Z,5.02
2018-12-11T01:23:52.430Z,5.00
2018-12-11T01:26:20.939Z,4.98
2018-12-11T01:28:49.204Z,4.97
2018-12-11T01:31:17.409Z,4.96
2018-12-11T01:33:45.604Z,4.91
2018-12-11T01:36:13.860Z,4.90
2018-12-11T01:38:42.070Z,4.89
2018-12-11T01:41:10.480Z,4.82
2018-12-11T01:43:38.735Z,4.85
2018-12-11T01:46:06.936Z,4.87
2018-12-11T01:48:35.173Z,4.84
2018-12-11T01:51:03.393Z,4.82
2018-12-11T01:53:31.596Z,4.83
2018-12-11T01:55:59.844Z,4.83
2018-12-11T01:58:28.040Z,4.81
2018-12-11T02:00:56.344Z,4.77
2018-12-11T02:03:24.546Z,4.78
2018-12-11T02:05:52.781Z,4.75
2018-12-11T02:08:20.979Z,4.74
2018-12-11T02:10:49.229Z,4.73
2018-12-11T02:13:17.442Z,4.71
2018-12-11T02:15:45.630Z,4.68
2018-12-11T02:18:13.920Z,4.68
2018-12-11T02:20:42.118Z,4.65
2018-12-11T02:23:10.376Z,4.68
2018-12-11T02:25:38.568Z,4.63
2018-12-11T02:28:06.821Z,4.64
2018-12-11T02:30:35.080Z,4.60
2018-12-11T02:33:03.380Z,4.62
2018-12-11T02:35:31.855Z,4.57
2018-12-11T02:38:00.105Z,4.55
2018-12-11T02:40:28.325Z,4.55
2018-12-11T02:42:56.641Z,4.54
2018-12-11T02:45:24.882Z,4.54
2018-12-11T02:47:53.095Z,4.52
2018-12-11T02:50:21.378Z,4.51
2018-12-11T02:52:49.609Z,4.49
2018-12-11T02:55:17.817Z,4.46
2018-12-11T02:57:46.088Z,4.43
2018-12-11T03:00:14.382Z,4.44
2018-12-11T03:02:42.589Z,4.44
2018-12-11T03:05:10.923Z,4.41
2018-12-11T03:07:39.279Z,4.40
2018-12-11T03:10:07.806Z,4.40
2018-12-11T03:12:36.003Z,4.39
2018-12-11T03:15:04.774Z,4.34
2018-12-11T03:17:33.092Z,4.35
2018-12-11T03:20:01.404Z,4.33
2018-12-11T03:22:29.699Z,4.36
2018-12-11T03:24:57.927Z,4.33
2018-12-11T03:27:27.408Z,4.31
2018-12-11T03:29:55.685Z,4.33
2018-12-11T03:32:23.889Z,4.28
2018-12-11T03:34:52.112Z,4.24
2018-12-11T03:37:20.548Z,4.26
2018-12-11T03:39:48.744Z,4.25
2018-12-11T03:42:16.982Z,4.23
2018-12-11T03:44:45.264Z,4.20
2018-12-11T03:47:13.518Z,4.20
2018-12-11T03:49:41.734Z,4.19
2018-12-11T03:52:09.936Z,4.18
2018-12-11T03:54:38.184Z,4.12
2018-12-11T03:57:06.387Z,4.12
2018-12-11T03:59:34.615Z,4.11
2018-12-11T04:02:03.165Z,4.07
2018-12-11T04:04:31.400Z,4.03
2018-12-11T04:06:59.679Z,4.03
2018-12-11T04:09:27.990Z,4.05
2018-12-11T04:11:56.537Z,4.03
2018-12-11T04:14:25.274Z,4.02
2018-12-11T04:16:53.609Z,4.02
2018-12-11T04:19:21.820Z,4.02
2018-12-11T04:21:50.058Z,4.01
2018-12-11T04:24:18.268Z,4.02
2018-12-11T04:26:46.498Z,4.02
2018-12-11T04:29:14.751Z,3.99
2018-12-11T04:31:43.029Z,3.95
2018-12-11T04:34:11.236Z,3.95
2018-12-11T04:36:39.446Z,3.93
2018-12-11T04:39:07.890Z,3.92
2018-12-11T04:41:36.114Z,3.89
2018-12-11T04:44:04.328Z,3.90
2018-12-11T04:46:32.592Z,3.92
2018-12-11T04:49:00.805Z,3.89
2018-12-11T04:51:29.014Z,3.91
2018-12-11T04:53:57.272Z,3.93
2018-12-11T04:56:25.468Z,3.91
2018-12-11T04:58:53.684Z,3.91
2018-12-11T05:01:21.932Z,3.93
2018-12-11T05:03:50.486Z,3.90
2018-12-11T05:06:18.817Z,3.89
2018-12-11T05:08:47.070Z,3.87
2018-12-11T05:11:15.265Z,3.83
2018-12-11T05:13:43.512Z,3.85
2018-12-11T05:16:11.741Z,3.85
2018-12-11T05:18:39.944Z,3.85
2018-12-11T05:21:08.211Z,3.82
2018-12-11T05:23:36.412Z,3.77
2018-12-11T05:26:04.717Z,3.76
2018-12-11T05:28:33.033Z,3.72
2018-12-11T05:31:01.265Z,3.74
2018-12-11T05:33:29.528Z,3.74
2018-12-11T05:35:57.784Z,3.74
2018-12-11T05:38:26.009Z,3.71
2018-12-11T05:40:54.249Z,3.70
2018-12-11T05:43:22.468Z,3.68
2018-12-11T05:45:50.726Z,3.65
2018-12-11T05:48:18.939Z,3.66
2018-12-11T05:50:47.233Z,3.67
2018-12-11T05:53:15.478Z,3.60
2018-12-11T05:55:43.727Z,3.61
2018-12-11T05:58:11.945Z,3.62
2018-12-11T06:00:40.313Z,3.60
2018-12-11T06:03:08.545Z,3.58
2018-12-11T06:05:36.784Z,3.59
2018-12-11T06:08:05.160Z,3.58
2018-12-11T06:10:33.368Z,3.59
2018-12-11T06:13:01.589Z,3.59
2018-12-11T06:15:29.880Z,3.59
2018-12-11T06:17:58.077Z,3.58
2018-12-11T06:20:26.280Z,3.59
2018-12-11T06:22:54.537Z,3.56
2018-12-11T06:25:22.747Z,3.50
2018-12-11T06:27:51.180Z,3.50
2018-12-11T06:30:19.428Z,3.49
2018-12-11T06:32:47.652Z,3.49
2018-12-11T06:35:15.906Z,3.48
2018-12-11T06:37:44.120Z,3.48
2018-12-11T06:40:12.480Z,3.45
2018-12-11T06:42:40.684Z,3.43
2018-12-11T06:45:09.017Z,3.44
2018-12-11T06:47:37.277Z,3.42
2018-12-11T06:50:06.816Z,3.43
2018-12-11T06:52:35.036Z,3.42
2018-12-11T06:55:03.401Z,3.40
2018-12-11T06:57:32.499Z,3.38
2018-12-11T07:00:00.762Z,3.38
2018-12-11T07:02:29.084Z,3.39
2018-12-11T07:04:57.296Z,3.37
2018-12-11T07:07:25.537Z,3.38
2018-12-11T07:09:53.796Z,3.38
2018-12-11T07:12:22.047Z,3.41
2018-12-11T07:14:50.240Z,3.42
2018-12-11T07:17:18.448Z,3.47
2018-12-11T07:19:46.672Z,3.47
2018-12-11T07:22:14.907Z,3.47
2018-12-11T07:24:43.146Z,3.47
2018-12-11T07:27:11.480Z,3.47
2018-12-11T07:29:39.733Z,3.44
2018-12-11T07:32:07.965Z,3.47
2018-12-11T07:34:36.193Z,3.54
2018-12-11T07:37:04.775Z,3.54
2018-12-11T07:39:32.971Z,3.47
2018-12-11T07:42:01.249Z,3.50
2018-12-11T07:44:29.456Z,3.52
2018-12-11T07:46:57.655Z,3.49
2018-12-11T07:49:25.892Z,3.45
2018-12-11T07:51:54.133Z,3.46
2018-12-11T07:54:22.374Z,3.43
2018-12-11T07:56:50.567Z,3.42
2018-12-11T07:59:18.816Z,3.43
2018-12-11T08:01:47.117Z,3.43
2018-12-11T08:04:15.456Z,3.40
2018-12-11T08:06:43.660Z,3.40
2018-12-11T08:09:11.944Z,3.42
2018-12-11T08:11:40.189Z,3.42
2018-12-11T08:14:08.464Z,3.42
2018-12-11T08:16:36.852Z,3.45
2018-12-11T08:19:05.349Z,3.43
2018-12-11T08:21:33.612Z,3.45
2018-12-11T08:24:01.917Z,3.50
2018-12-11T08:26:30.193Z,3.48
2018-12-11T08:28:58.444Z,3.52
2018-12-11T08:31:26.682Z,3.53
2018-12-11T08:33:54.929Z,3.58
2018-12-11T08:36:23.172Z,3.61
2018-12-11T08:38:51.421Z,3.66
2018-12-11T08:41:19.616Z,3.65
2018-12-11T08:43:47.808Z,3.72
2018-12-11T08:46:16.058Z,3.73
2018-12-11T08:48:44.344Z,3.77
2018-12-11T08:51:12.580Z,3.82
2018-12-11T08:53:40.807Z,3.83
2018-12-11T08:56:09.112Z,3.87
2018-12-11T08:58:37.318Z,3.93
2018-12-11T09:01:05.749Z,3.99
2018-12-11T09:03:33.972Z,3.94
2018-12-11T09:06:02.329Z,4.01
2018-12-11T09:08:30.557Z,4.12
2018-12-11T09:10:58.797Z,4.22
2018-12-11T09:13:26.992Z,4.21
2018-12-11T09:15:55.204Z,4.27
2018-12-11T09:18:23.449Z,4.31
2018-12-11T09:20:51.644Z,4.36
2018-12-11T09:23:19.940Z,4.40
2018-12-11T09:25:48.200Z,4.43
2018-12-11T09:28:16.444Z,4.54
2018-12-11T09:30:44.640Z,4.53
2018-12-11T09:33:12.921Z,4.70
2018-12-11T09:35:41.244Z,4.76
2018-12-11T09:38:09.456Z,4.83
2018-12-11T09:40:37.688Z,4.83
2018-12-11T09:43:05.900Z,4.86
2018-12-11T09:45:34.284Z,4.94
2018-12-11T09:48:02.554Z,4.97
2018-12-11T09:50:30.984Z,4.95
2018-12-11T09:52:59.216Z,5.01
2018-12-11T09:55:27.593Z,5.04
2018-12-11T09:57:55.797Z,5.10
2018-12-11T10:00:27.212Z,5.08
2018-12-11T10:02:54.279Z,5.13
2018-12-11T10:05:22.636Z,5.16
2018-12-11T10:07:50.943Z,5.15
2018-12-11T10:10:19.164Z,5.22
2018-12-11T10:12:47.357Z,5.25
2018-12-11T10:15:15.593Z,5.38
2018-12-11T10:17:43.792Z,5.42
2018-12-11T10:20:12.744Z,5.41
2018-12-11T10:22:40.935Z,5.40
2018-12-11T10:25:09.240Z,5.48
2018-12-11T10:27:37.484Z,5.42
2018-12-11T10:30:08.065Z,5.53
2018-12-11T10:32:36.313Z,5.60
2018-12-11T10:35:05.006Z,5.45
2018-12-11T10:37:33.360Z,5.55
2018-12-11T10:40:01.562Z,5.54
2018-12-11T10:42:29.840Z,5.54
2018-12-11T10:44:58.248Z,5.62
2018-12-11T10:47:26.440Z,5.52
2018-12-11T10:49:54.652Z,5.52
2018-12-11T10:52:22.892Z,5.57
2018-12-11T10:54:51.088Z,5.59
2018-12-11T10:57:19.452Z,5.60
2018-12-11T10:59:47.687Z,5.77
2018-12-11T11:02:21.264Z,5.73
2018-12-11T11:04:49.532Z,5.86
2018-12-11T11:07:17.738Z,5.91
2018-12-11T11:09:46.674Z,6.01
2018-12-11T11:12:15.128Z,6.11
2018-12-11T11:14:43.453Z,6.07
2018-12-11T11:17:11.697Z,6.24
2018-12-11T11:19:39.904Z,6.15
2018-12-11T11:22:08.161Z,6.11
2018-12-11T11:24:36.509Z,6.11
2018-12-11T11:27:04.832Z,6.14
2018-12-11T11:29:33.089Z,6.12
2018-12-11T11:32:01.386Z,6.25
2018-12-11T11:34:38.485Z,6.17
2018-12-11T11:37:06.772Z,6.22
2018-12-11T11:39:35.037Z,6.12
2018-12-11T11:42:03.348Z,6.13
2018-12-11T11:44:31.568Z,6.18
2018-12-11T11:46:59.844Z,6.22
2018-12-11T11:49:28.405Z,6.19
2018-12-11T11:51:56.655Z,6.14
2018-12-11T11:54:24.984Z,6.20
2018-12-11T11:56:53.680Z,6.20
2018-12-11T11:59:21.924Z,6.26
2018-12-11T12:01:50.120Z,6.30
2018-12-11T12:04:18.377Z,6.35
2018-12-11T12:06:46.636Z,6.28
2018-12-11T12:09:14.968Z,6.30
2018-12-11T12:11:43.780Z,6.26
2018-12-11T12:14:12.008Z,6.19
2018-12-11T12:16:40.212Z,6.16
2018-12-11T12:19:08.463Z,6.23
2018-12-11T12:21:36.692Z,6.18
2018-12-11T12:24:05.050Z,6.15
2018-12-11T12:26:33.293Z,6.18
2018-12-11T12:29:01.503Z,6.12
2018-12-11T12:31:29.949Z,6.03
2018-12-11T12:33:58.228Z,6.07
2018-12-11T12:36:26.442Z,6.02
2018-12-11T12:38:54.736Z,5.77
2018-12-11T12:41:22.969Z,5.96
2018-12-11T12:43:51.185Z,5.86
2018-12-11T12:46:19.388Z,5.80
2018-12-11T12:48:47.641Z,5.96
2018-12-11T12:51:15.852Z,5.83
2018-12-11T12:53:44.084Z,5.80
2018-12-11T12:56:12.297Z,5.67
2018-12-11T12:58:40.529Z,5.63
2018-12-11T13:01:08.725Z,5.77
2018-12-11T13:03:37.268Z,5.71
2018-12-11T13:06:05.776Z,5.86
2018-12-11T13:08:33.971Z,5.87
2018-12-11T13:11:02.211Z,5.86
2018-12-11T13:13:30.466Z,5.76
2018-12-11T13:15:58.716Z,5.67
2018-12-11T13:18:26.933Z,5.70
2018-12-11T13:20:55.265Z,5.60
2018-12-11T13:23:23.556Z,5.57
2018-12-11T13:25:51.780Z,5.61
2018-12-11T13:28:20.129Z,5.61
2018-12-11T13:30:48.535Z,5.59
2018-12-11T13:33:16.764Z,5.54
2018-12-11T13:35:45.052Z,5.45
2018-12-11T13:38:13.292Z,5.49
2018-12-11T13:40:41.871Z,5.45
2018-12-11T13:43:10.072Z,5.37
2018-12-11T13:45:38.400Z,5.48
2018-12-11T13:48:06.910Z,5.51
2018-12-11T13:50:35.240Z,5.45
2018-12-11T13:53:03.454Z,5.37
2018-12-11T13:55:31.697Z,5.33
2018-12-11T13:57:59.917Z,5.31
2018-12-11T14:00:28.167Z,5.33
2018-12-11T14:02:56.404Z,5.31
2018-12-11T14:05:24.617Z,5.42
2018-12-11T14:07:52.847Z,5.40
2018-12-11T14:10:21.084Z,5.34
2018-12-11T14:12:49.308Z,5.39
2018-12-11T14:15:17.699Z,5.32
2018-12-11T14:17:45.893Z,5.37
2018-12-11T14:20:14.076Z,5.29
2018-12-11T14:22:42.433Z,5.34
2018-12-11T14:25:10.767Z,5.34
2018-12-11T14:27:39.030Z,5.31
2018-12-11T14:30:11.063Z,5.29
2018-12-11T14:32:39.717Z,5.35
2018-12-11T14:35:08.027Z,5.37
2018-12-11T14:37:36.250Z,5.40
2018-12-11T14:40:04.985Z,5.42
2018-12-11T14:42:33.188Z,5.43
2018-12-11T14:45:01.501Z,5.39
2018-12-11T14:47:29.749Z,5.46
2018-12-11T14:49:57.972Z,5.48
2018-12-11T14:52:26.209Z,5.49
2018-12-11T14:54:54.457Z,5.49
2018-12-11T14:57:22.649Z,5.48
2018-12-11T14:59:50.895Z,5.51
2018-12-11T15:02:19.117Z,5.53
2018-12-11T15:04:47.368Z,5.54
2018-12-11T15:07:15.594Z,5.54
2018-12-11T15:09:50.303Z,5.54
2018-12-11T15:12:18.589Z,5.58
2018-12-11T15:14:46.812Z,5.59
2018-12-11T15:17:15.116Z,5.60
2018-12-11T15:19:43.336Z,5.58
2018-12-11T15:22:11.700Z,5.65
2018-12-11T15:24:39.897Z,5.64
2018-12-11T15:27:08.128Z,5.65
2018-12-11T15:29:36.354Z,5.66
2018-12-11T15:32:05.393Z,5.69
2018-12-11T15:34:33.652Z,5.70
2018-12-11T15:37:01.852Z,5.68
2018-12-11T15:39:35.593Z,5.68
2018-12-11T15:42:00.279Z,5.73
2018-12-11T15:44:28.564Z,5.71
2018-12-11T15:46:56.808Z,5.71
2018-12-11T15:49:25.025Z,5.72
2018-12-11T15:51:53.463Z,5.72
2018-12-11T15:54:21.713Z,5.71
2018-12-11T15:56:50.423Z,5.65
2018-12-11T15:59:18.759Z,5.65
2018-12-11T16:01:46.965Z,5.64
2018-12-11T16:04:15.213Z,5.65
2018-12-11T16:06:43.465Z,5.63
2018-12-11T16:09:11.951Z,5.60
2018-12-11T16:11:40.166Z,5.61
2018-12-11T16:14:08.429Z,5.63
2018-12-11T16:16:36.648Z,5.60
2018-12-11T16:19:04.884Z,5.59
2018-12-11T16:21:33.128Z,5.60
2018-12-11T16:24:01.318Z,5.61
2018-12-11T16:26:29.559Z,5.60
2018-12-11T16:28:57.836Z,5.56
2018-12-11T16:31:26.087Z,5.52
2018-12-11T16:33:54.289Z,5.53
2018-12-11T16:36:22.532Z,5.47
2018-12-11T16:38:50.893Z,5.29
2018-12-11T16:41:19.733Z,5.24
2018-12-11T16:43:47.945Z,5.25
2018-12-11T16:46:16.269Z,5.31
2018-12-11T16:48:44.476Z,5.22
2018-12-11T16:51:12.675Z,5.35
2018-12-11T16:53:40.994Z,5.41
2018-12-11T16:56:09.188Z,5.42
2018-12-11T16:58:37.420Z,5.46
2018-12-11T17:01:05.620Z,5.46
2018-12-11T17:03:34.016Z,5.47
2018-12-11T17:06:02.331Z,5.52
2018-12-11T17:08:30.562Z,5.52
2018-12-11T17:10:58.893Z,5.55
2018-12-11T17:13:27.246Z,5.57
2018-12-11T17:15:55.484Z,5.56
2018-12-11T17:18:23.692Z,5.61
2018-12-11T17:20:52.203Z,5.60
2018-12-11T17:23:20.460Z,5.60
2018-12-11T17:25:48.708Z,5.59
2018-12-11T17:28:16.904Z,5.54
2018-12-11T17:30:45.260Z,5.59
2018-12-11T17:33:13.478Z,5.63
2018-12-11T17:35:41.692Z,5.63
2018-12-11T17:38:09.928Z,5.58
2018-12-11T17:40:38.148Z,5.56
2018-12-11T17:43:06.388Z,5.65
2018-12-11T17:45:34.644Z,5.62
2018-12-11T17:48:03.068Z,5.62
2018-12-11T17:50:31.269Z,5.60
2018-12-11T17:52:59.508Z,5.65
2018-12-11T17:55:27.876Z,5.67
2018-12-11T17:57:56.095Z,5.67
2018-12-11T18:00:24.441Z,5.68
2018-12-11T18:02:53.153Z,5.69
2018-12-11T18:05:21.416Z,5.70
2018-12-11T18:07:50.501Z,5.71
2018-12-11T18:10:18.748Z,5.66
2018-12-11T18:12:46.996Z,5.68
2018-12-11T18:15:15.235Z,5.62
2018-12-11T18:17:43.540Z,5.65
2018-12-11T18:20:11.791Z,5.64
2018-12-11T18:22:40.086Z,5.65
2018-12-11T18:25:08.384Z,5.63
2018-12-11T18:27:36.724Z,5.63
2018-12-11T18:30:06.317Z,5.58
2018-12-11T18:32:34.728Z,5.62
2018-12-11T18:35:03.413Z,5.61
2018-12-11T18:37:31.615Z,5.62
2018-12-11T18:39:59.841Z,5.62
2018-12-11T18:42:28.040Z,5.59
2018-12-11T18:44:56.272Z,5.59
2018-12-11T18:47:25.855Z,5.65
2018-12-11T18:49:54.328Z,5.69
2018-12-11T18:52:22.564Z,5.67
2018-12-11T18:54:50.799Z,5.69
2018-12-11T18:57:19.039Z,5.70
2018-12-11T18:59:47.320Z,5.68
2018-12-11T19:02:15.513Z,5.63
2018-12-11T19:04:43.765Z,5.67
2018-12-11T19:07:12.444Z,5.63
2018-12-11T19:09:40.784Z,5.66
2018-12-11T19:12:09.421Z,5.65
2018-12-11T19:14:37.678Z,5.60
2018-12-11T19:17:05.957Z,5.60
2018-12-11T19:19:34.184Z,5.62
2018-12-11T19:22:02.481Z,5.61
2018-12-11T19:24:34.708Z,5.58
2018-12-11T19:27:02.950Z,5.61
2018-12-11T19:29:31.275Z,5.62
2018-12-11T19:31:59.524Z,5.64
2018-12-11T19:34:27.717Z,5.62
2018-12-11T19:36:55.911Z,5.57
2018-12-11T19:39:24.140Z,5.53
2018-12-11T19:41:52.416Z,5.54
2018-12-11T19:44:20.684Z,5.56
2018-12-11T19:46:48.932Z,5.52
2018-12-11T19:49:17.198Z,5.50
2018-12-11T19:51:45.492Z,5.54
2018-12-11T19:54:13.748Z,5.52
2018-12-11T19:56:42.025Z,5.55
2018-12-11T19:59:10.342Z,5.50
2018-12-11T20:01:38.597Z,5.51
2018-12-11T20:04:07.176Z,5.54
2018-12-11T20:06:35.409Z,5.54
2018-12-11T20:09:05.329Z,5.53
2018-12-11T20:11:33.573Z,5.53
2018-12-11T20:14:01.800Z,5.52
2018-12-11T20:16:30.126Z,5.48
2018-12-11T20:18:58.335Z,5.49
2018-12-11T20:21:26.608Z,5.50
2018-12-11T20:23:54.852Z,5.52
2018-12-11T20:26:23.764Z,5.46
2018-12-11T20:28:52.049Z,5.42
2018-12-11T20:31:20.286Z,5.43
2018-12-11T20:36:29.099Z,5.43
2018-12-11T20:38:57.348Z,5.39
2018-12-11T20:41:25.625Z,5.37
2018-12-11T20:43:54.468Z,5.30
2018-12-11T20:46:22.762Z,5.32
2018-12-11T20:48:51.028Z,5.29
2018-12-11T20:51:19.367Z,5.26
2018-12-11T20:53:47.624Z,5.22
2018-12-11T20:56:15.888Z,5.24
2018-12-11T20:58:44.081Z,5.22
2018-12-11T21:01:12.297Z,5.22
2018-12-11T21:03:40.552Z,5.28
2018-12-11T21:06:08.772Z,5.31
2018-12-11T21:08:37.144Z,5.31
2018-12-11T21:11:05.387Z,5.33
2018-12-11T21:13:33.621Z,5.30
2018-12-11T21:16:01.924Z,5.32
2018-12-11T21:18:30.261Z,5.34
2018-12-11T21:20:58.500Z,5.27
2018-12-11T21:23:26.993Z,5.30
2018-12-11T21:25:55.232Z,5.30
2018-12-11T21:28:23.472Z,5.30
2018-12-11T21:30:51.780Z,5.30
2018-12-11T21:33:20.057Z,5.31
2018-12-11T21:35:48.251Z,5.29
2018-12-11T21:38:16.557Z,5.29
2018-12-11T21:40:45.683Z,5.28
2018-12-11T21:43:13.914Z,5.25
2018-12-11T21:45:42.132Z,5.27
2018-12-11T21:48:10.416Z,5.24
2018-12-11T21:50:38.654Z,5.22
2018-12-11T21:53:07.022Z,5.21
2018-12-11T21:55:35.297Z,5.22
2018-12-11T21:58:03.648Z,5.18
2018-12-11T22:00:32.060Z,5.11
2018-12-11T22:03:00.454Z,5.16
2018-12-11T22:05:28.856Z,5.12
2018-12-11T22:07:57.090Z,5.15
2018-12-11T22:10:25.347Z,5.18
2018-12-11T22:12:53.612Z,5.16
2018-12-11T22:15:21.852Z,5.06
2018-12-11T22:17:50.740Z,4.99
2018-12-11T22:20:18.964Z,4.99
2018-12-11T22:22:47.276Z,4.99
2018-12-11T22:25:15.520Z,4.89
2018-12-11T22:27:43.808Z,4.91
2018-12-11T22:30:12.037Z,4.89
2018-12-11T22:32:40.328Z,4.84
2018-12-11T22:35:08.624Z,4.82
2018-12-11T22:37:36.856Z,4.85
2018-12-11T22:40:05.838Z,4.84
2018-12-11T22:42:34.101Z,4.87
2018-12-11T22:45:02.393Z,4.85
2018-12-11T22:47:30.604Z,4.86
2018-12-11T22:49:58.817Z,4.82
2018-12-11T22:52:27.229Z,4.86
2018-12-11T22:54:55.440Z,4.91
2018-12-11T22:57:23.757Z,4.85
2018-12-11T22:59:51.997Z,4.87
2018-12-11T23:02:20.253Z,4.90
2018-12-11T23:04:48.489Z,4.99
2018-12-11T23:07:16.780Z,4.94
2018-12-11T23:09:45.284Z,4.92
2018-12-11T23:12:13.604Z,4.93
2018-12-11T23:14:42.500Z,5.03
2018-12-11T23:17:10.734Z,5.04
2018-12-11T23:19:39.111Z,5.07
2018-12-11T23:22:07.348Z,4.95
2018-12-11T23:24:35.852Z,5.00
2018-12-11T23:27:04.504Z,5.03
2018-12-11T23:29:32.721Z,5.05
2018-12-11T23:32:00.968Z,5.02
2018-12-11T23:34:29.209Z,5.11
2018-12-11T23:36:57.516Z,5.19
2018-12-11T23:39:25.773Z,5.19
2018-12-11T23:41:53.986Z,5.15
2018-12-11T23:44:22.313Z,5.18
2018-12-11T23:46:50.592Z,5.23
2018-12-11T23:49:18.799Z,5.26
2018-12-11T23:51:47.152Z,5.29
2018-12-11T23:54:15.448Z,5.23
2018-12-11T23:56:43.689Z,5.24
2018-12-11T23:59:11.975Z,5.21
